Time;durP1;ratioP1;P1;durP2;ratioP2;P2;SDS_P1;SDS_P2;PMS_P1;PMS_P2;Temp;Humidity;BMP_temperature;BMP_pressure;BME280_temperature;BME280_humidity;BME280_pressure;Samples;Min_cycle;Max_cycle;Signal;HPM_P1;HPM_P2
2022/01/19 00:02:18;;;;;;;6.32;4.90;;;;;;;1.35;49.66;102034.69;4991646;28;20387;-70
2022/01/19 00:08:41;;;;;;;8.20;5.40;;;;;;;0.95;51.06;102039.88;5005695;28;20048;-71
2022/01/19 00:11:49;;;;;;;11.20;6.00;;;;;;;1.20;52.00;102038.09;5000340;28;20042;-71
2022/01/19 00:14:22;;;;;;;8.48;5.57;;;;;;;0.97;52.12;102022.81;5004501;28;20478;-71
2022/01/19 00:16:48;;;;;;;12.32;5.30;;;;;;;0.89;52.29;102035.22;5005278;28;20054;-74
2022/01/19 00:19:13;;;;;;;10.23;4.72;;;;;;;0.76;52.07;102022.28;5005053;28;20038;-76
2022/01/19 00:21:39;;;;;;;10.23;6.28;;;;;;;0.79;52.52;102038.00;5005653;28;20021;-71
2022/01/19 00:24:04;;;;;;;12.93;6.93;;;;;;;0.68;53.19;102051.88;5005056;28;20053;-71
2022/01/19 00:26:30;;;;;;;10.05;5.18;;;;;;;0.50;53.44;102043.81;5004920;28;20038;-73
2022/01/19 00:28:57;;;;;;;10.07;5.75;;;;;;;0.56;53.84;102050.28;5004789;28;20394;-71
2022/01/19 00:31:23;;;;;;;10.55;6.43;;;;;;;0.49;53.04;102034.25;4987025;28;20034;-72
2022/01/19 00:33:48;;;;;;;14.73;5.13;;;;;;;0.37;53.77;102055.88;5005096;28;20382;-72
2022/01/19 00:36:39;;;;;;;13.45;6.57;;;;;;;0.27;54.66;102053.47;5005078;28;20458;-71
2022/01/19 00:39:07;;;;;;;10.05;4.97;;;;;;;0.08;55.33;102035.84;5003131;28;20100;-71
2022/01/19 00:41:32;;;;;;;9.27;4.47;;;;;;;-0.03;54.66;102024.78;4988166;28;20573;-72
2022/01/19 00:43:57;;;;;;;7.57;3.85;;;;;;;0.06;55.21;102041.69;4993608;28;20066;-72
2022/01/19 00:46:23;;;;;;;11.50;6.70;;;;;;;0.17;54.35;102031.31;4990711;28;20038;-71
2022/01/19 00:48:48;;;;;;;10.07;5.32;;;;;;;0.55;54.43;102035.56;4991468;28;20041;-72
2022/01/19 00:51:14;;;;;;;9.40;5.72;;;;;;;0.20;54.64;102025.47;4993369;28;20014;-71
2022/01/19 00:53:39;;;;;;;10.25;5.40;;;;;;;0.20;55.79;102030.63;4991418;28;20466;-74
2022/01/19 00:56:05;;;;;;;10.40;6.03;;;;;;;0.27;54.94;102042.25;4989665;28;20458;-72
2022/01/19 00:58:30;;;;;;;9.63;5.47;;;;;;;0.16;54.89;102015.72;4992349;28;20050;-72
2022/01/19 01:00:55;;;;;;;10.52;5.07;;;;;;;0.11;54.93;102042.91;4992294;28;20508;-72
2022/01/19 01:03:21;;;;;;;11.38;5.32;;;;;;;0.12;54.34;102049.88;4990047;28;20437;-72
2022/01/19 01:05:46;;;;;;;10.30;5.78;;;;;;;-0.26;56.17;102024.88;4991071;28;20022;-72
2022/01/19 01:08:30;;;;;;;11.98;4.90;;;;;;;0.05;57.01;102042.47;4992281;28;20081;-71
2022/01/19 01:11:12;;;;;;;16.92;4.25;;;;;;;0.18;54.62;102016.72;4991663;28;20149;-71
2022/01/19 01:16:37;;;;;;;;;;;;;;;0.35;54.82;102020.44;4985391;28;20034;-71
2022/01/19 01:19:08;;;;;;;9.07;5.03;;;;;;;0.17;54.98;102004.63;4991301;28;19937;-75
2022/01/19 01:21:33;;;;;;;15.45;5.40;;;;;;;0.33;54.46;102019.47;4989108;28;20030;-71
2022/01/19 01:23:59;;;;;;;8.95;5.13;;;;;;;0.49;54.33;102011.94;4985733;28;20104;-72
2022/01/19 01:26:25;;;;;;;9.35;5.15;;;;;;;0.07;54.89;102004.75;4973005;28;20053;-78
2022/01/19 01:28:51;;;;;;;12.48;5.22;;;;;;;-0.03;56.34;101993.81;4991714;28;20133;-72
2022/01/19 01:31:50;;;;;;;7.88;4.80;;;;;;;0.28;54.96;102018.22;4991908;28;20053;-71
2022/01/19 01:34:15;;;;;;;8.40;4.07;;;;;;;0.33;54.82;102020.34;4997934;28;20050;-71
2022/01/19 01:36:40;;;;;;;8.10;4.85;;;;;;;0.35;54.27;102021.34;4992801;28;20093;-72
2022/01/19 01:39:06;;;;;;;7.75;4.95;;;;;;;0.07;55.14;102016.00;4990732;28;20042;-75
2022/01/19 01:41:31;;;;;;;8.90;5.25;;;;;;;0.06;55.55;102033.94;4990707;28;20042;-72
2022/01/19 01:44:19;;;;;;;11.35;4.35;;;;;;;0.20;55.31;102039.25;4992429;28;20430;-71
2022/01/19 01:46:56;;;;;;;11.05;5.47;;;;;;;-0.05;56.09;102038.34;4986619;28;20048;-72
2022/01/19 01:49:46;;;;;;;11.30;5.00;;;;;;;-0.16;57.21;102041.91;4991752;28;20042;-72
2022/01/19 01:54:57;;;;;;;19.80;5.82;;;;;;;-0.23;57.79;102045.75;4987619;28;20382;-79
2022/01/19 01:57:23;;;;;;;7.30;4.07;;;;;;;-0.27;59.04;102062.66;4985153;28;20041;-71
2022/01/19 01:59:48;;;;;;;10.57;5.00;;;;;;;-0.15;57.59;102056.59;4991681;28;20474;-70
2022/01/19 02:02:14;;;;;;;8.75;5.28;;;;;;;0.07;55.28;102053.78;4991295;28;20034;-71
2022/01/19 02:04:41;;;;;;;10.45;5.30;;;;;;;0.06;54.81;102036.53;4989970;28;20050;-71
2022/01/19 02:07:32;;;;;;;14.68;5.88;;;;;;;0.01;54.48;102041.38;4995223;28;20027;-72
2022/01/19 02:10:00;;;;;;;8.80;5.22;;;;;;;-0.03;54.65;102050.56;4991339;28;20026;-72
2022/01/19 02:26:01;;;;;;;12.77;6.78;;;;;;;-0.50;56.76;102019.78;4990121;28;20149;-73
2022/01/19 02:42:38;;;;;;;9.52;5.97;;;;;;;-0.65;56.83;102026.44;4983987;28;20061;-71
2022/01/19 02:50:15;;;;;;;25.27;7.47;;;;;;;-0.85;58.27;102040.47;4989605;28;20096;-72
2022/01/19 02:52:42;;;;;;;12.85;6.85;;;;;;;-0.78;58.81;102037.53;4990399;28;20054;-70
2022/01/19 02:55:08;;;;;;;9.30;6.03;;;;;;;-1.00;58.99;102013.63;4988219;28;20090;-71
2022/01/19 02:57:35;;;;;;;10.23;5.90;;;;;;;-1.15;59.34;102014.28;4990685;28;20027;-71
2022/01/19 03:06:31;;;;;;;14.95;5.68;;;;;;;-1.03;59.19;102037.47;4989911;28;20046;-72
2022/01/19 03:11:42;;;;;;;7.15;5.22;;;;;;;-0.76;60.32;102046.28;4989142;28;20494;-72
2022/01/19 03:14:08;;;;;;;12.18;7.10;;;;;;;-0.80;60.06;102027.91;4981356;28;20049;-72
2022/01/19 03:16:34;;;;;;;11.90;5.75;;;;;;;-0.66;60.02;102059.06;4990308;28;20129;-71
2022/01/19 03:19:00;;;;;;;13.40;7.72;;;;;;;-0.98;61.94;102043.84;4989753;28;20038;-71
2022/01/19 03:21:26;;;;;;;12.48;6.32;;;;;;;-0.93;61.58;102054.50;4984154;28;20157;-71
2022/01/19 03:23:51;;;;;;;13.90;5.93;;;;;;;-0.95;61.07;102054.38;4985665;28;20051;-71
2022/01/19 03:26:16;;;;;;;9.45;6.18;;;;;;;-0.99;60.92;102042.03;4990509;28;20130;-71
2022/01/19 03:28:42;;;;;;;9.48;5.97;;;;;;;-0.87;60.39;102049.75;4988158;28;20047;-71
2022/01/19 03:31:07;;;;;;;12.02;6.10;;;;;;;-0.74;60.50;102067.03;4989667;28;20394;-71
2022/01/19 03:33:33;;;;;;;8.40;6.45;;;;;;;-0.75;59.57;102063.56;4990618;28;20447;-71
2022/01/19 03:35:59;;;;;;;12.15;5.95;;;;;;;-0.62;58.99;102074.75;4982252;28;20069;-74
2022/01/19 03:38:24;;;;;;;12.90;5.50;;;;;;;-0.69;59.17;102086.28;4989672;28;20096;-71
2022/01/19 03:40:50;;;;;;;9.55;5.70;;;;;;;-0.78;59.74;102089.09;4989901;28;20570;-71
2022/01/19 03:43:16;;;;;;;14.25;6.15;;;;;;;-0.94;59.72;102068.13;4989341;28;20046;-71
2022/01/19 03:45:50;;;;;;;14.95;7.80;;;;;;;-0.94;59.53;102065.56;4988459;28;20042;-72
2022/01/19 03:50:41;;;;;;;10.63;5.90;;;;;;;-0.89;61.28;102075.44;4985411;28;20138;-71
2022/01/19 03:53:06;;;;;;;9.35;5.05;;;;;;;-0.61;59.75;102097.16;4987918;28;20046;-72
2022/01/19 03:55:32;;;;;;;11.20;5.00;;;;;;;-0.91;60.55;102086.44;4990331;28;20046;-71
2022/01/19 03:57:57;;;;;;;15.20;7.75;;;;;;;-0.76;60.21;102102.09;4988326;28;20078;-72
2022/01/19 04:00:23;;;;;;;19.27;7.13;;;;;;;-0.93;59.98;102104.34;4989290;28;20085;-73
2022/01/19 04:02:49;;;;;;;10.35;6.93;;;;;;;-0.94;60.36;102089.63;4977280;28;20070;-72
2022/01/19 04:05:37;;;;;;;11.43;5.40;;;;;;;-1.00;59.09;102072.88;4986219;28;20447;-72
2022/01/19 04:08:04;;;;;;;12.05;5.82;;;;;;;-0.88;59.96;102066.03;4987986;28;20077;-72
2022/01/19 04:10:29;;;;;;;14.75;5.75;;;;;;;-0.74;59.21;102073.06;4990176;28;20038;-70
2022/01/19 04:13:07;;;;;;;17.92;6.53;;;;;;;-0.79;58.43;102083.84;4987133;28;20032;-71
2022/01/19 04:15:33;;;;;;;11.00;5.22;;;;;;;-1.04;59.34;102083.72;5003697;28;20359;-71
2022/01/19 04:17:58;;;;;;;13.02;5.50;;;;;;;-0.74;59.04;102105.69;4993218;28;20108;-70
2022/01/19 04:20:26;;;;;;;11.20;5.97;;;;;;;-0.55;57.91;102098.50;4990737;28;20462;-71
2022/01/19 04:22:51;;;;;;;20.42;7.60;;;;;;;-0.65;59.57;102111.50;4992568;28;20052;-71
2022/01/19 04:25:17;;;;;;;13.40;6.95;;;;;;;-0.83;59.63;102107.59;4993188;28;20035;-71
2022/01/19 04:27:44;;;;;;;9.00;5.95;;;;;;;-0.59;58.03;102088.72;4992284;28;20046;-71
2022/01/19 04:30:13;;;;;;;9.10;5.38;;;;;;;-0.97;58.84;102083.38;4997604;28;20043;-71
2022/01/19 04:35:27;;;;;;;7.03;4.90;;;;;;;-0.54;57.88;102077.09;4991299;28;20523;-70
2022/01/19 05:03:39;;;;;;;9.43;5.75;;;;;;;-1.01;57.67;102064.22;4920032;29;20060;-71
2022/01/19 05:06:10;;;;;;;10.80;5.82;;;;;;;-1.00;57.55;102093.47;4988392;28;20042;-72
2022/01/19 05:14:11;;;;;;;12.13;6.72;;;;;;;-0.32;55.38;102084.66;4994995;28;20414;-72
2022/01/19 05:16:37;;;;;;;9.43;5.10;;;;;;;-0.52;56.03;102057.44;4995894;28;20034;-71
2022/01/19 05:19:02;;;;;;;14.10;7.15;;;;;;;-0.51;56.17;102061.84;4991650;28;20355;-72
2022/01/19 05:21:28;;;;;;;13.40;6.47;;;;;;;-0.47;56.68;102050.97;4990019;28;20156;-72
2022/01/19 05:24:17;;;;;;;13.80;8.35;;;;;;;-0.55;56.88;102072.72;4991700;28;20038;-70
2022/01/19 05:26:43;;;;;;;17.48;8.05;;;;;;;-0.83;57.11;102058.63;4973341;28;20042;-71
2022/01/19 05:29:08;;;;;;;10.15;6.93;;;;;;;-0.76;56.59;102064.31;4989533;28;20060;-71
2022/01/19 05:31:34;;;;;;;25.10;8.85;;;;;;;-0.77;57.77;102071.94;4984173;28;20125;-71
2022/01/19 05:33:59;;;;;;;14.30;7.15;;;;;;;-0.99;58.09;102054.91;4985188;28;20443;-71
2022/01/19 05:36:25;;;;;;;17.85;9.30;;;;;;;-0.83;58.39;102111.06;4990313;28;20113;-72
2022/01/19 05:38:50;;;;;;;21.52;7.53;;;;;;;-0.78;58.37;102112.28;4990913;28;20050;-71
2022/01/19 05:41:16;;;;;;;15.65;8.23;;;;;;;-0.82;57.65;102104.22;4990415;28;20462;-73
2022/01/19 05:43:42;;;;;;;17.67;6.55;;;;;;;-0.58;57.60;102131.78;4990368;28;20395;-73
2022/01/19 05:46:07;;;;;;;13.52;8.15;;;;;;;-0.65;58.08;102122.72;4991291;28;20507;-72
2022/01/19 05:48:33;;;;;;;19.30;8.82;;;;;;;-0.51;57.61;102127.97;4989991;28;20429;-71
2022/01/19 05:50:58;;;;;;;23.92;8.05;;;;;;;-0.73;57.26;102118.66;4989614;28;20052;-73
2022/01/19 05:53:23;;;;;;;21.25;10.30;;;;;;;-0.55;57.33;102120.81;4990456;28;20470;-73
2022/01/19 05:55:49;;;;;;;13.93;9.55;;;;;;;-0.45;57.83;102120.66;4990869;28;20497;-71
2022/01/19 05:58:15;;;;;;;25.95;10.38;;;;;;;-0.42;59.37;102110.59;4989222;28;20051;-71
2022/01/19 06:00:40;;;;;;;12.93;7.47;;;;;;;-0.79;58.38;102109.63;4989417;28;20040;-75
2022/01/19 06:03:06;;;;;;;11.80;7.25;;;;;;;-0.72;57.77;102120.47;4990859;28;20523;-71
2022/01/19 06:05:32;;;;;;;13.27;8.70;;;;;;;-0.61;56.91;102110.91;4989147;28;20141;-70
2022/01/19 06:10:43;;;;;;;12.85;8.88;;;;;;;-0.28;58.81;102142.50;4993207;28;20064;-72
2022/01/19 06:13:11;;;;;;;24.52;10.27;;;;;;;-0.14;58.63;102146.06;4989174;28;20404;-72
2022/01/19 06:18:02;;;;;;;20.25;9.48;;;;;;;-0.83;60.97;102144.56;5028282;27;20610;-72
2022/01/19 06:20:28;;;;;;;23.85;10.10;;;;;;;-0.80;61.17;102146.47;5011384;28;20042;-78
2022/01/19 06:22:54;;;;;;;25.50;9.82;;;;;;;-0.97;61.72;102120.34;5023347;28;20109;-72
2022/01/19 06:25:20;;;;;;;16.90;10.10;;;;;;;-0.85;60.02;102148.69;5010887;28;20038;-70
2022/01/19 06:27:45;;;;;;;17.65;9.40;;;;;;;-0.75;59.63;102142.53;5017745;28;20072;-73
2022/01/19 06:30:12;;;;;;;19.98;10.55;;;;;;;-0.51;58.50;102140.88;5011116;28;20056;-72
2022/01/19 06:32:37;;;;;;;12.75;8.05;;;;;;;-0.59;57.06;102124.81;5026296;28;20468;-73
2022/01/19 06:35:03;;;;;;;11.90;8.95;;;;;;;-0.07;58.43;102151.81;5011171;28;20042;-71
2022/01/19 06:37:29;;;;;;;22.13;12.02;;;;;;;-0.06;59.32;102148.41;5017702;28;20117;-72
2022/01/19 06:39:54;;;;;;;19.42;10.88;;;;;;;-0.14;57.65;102144.41;5007717;28;20030;-71
2022/01/19 06:42:20;;;;;;;19.30;14.73;;;;;;;-0.05;58.71;102155.38;5021992;28;20529;-71
2022/01/19 06:44:45;;;;;;;18.73;13.95;;;;;;;-0.40;59.32;102139.94;5023190;28;20041;-70
2022/01/19 06:47:10;;;;;;;20.77;14.63;;;;;;;-0.38;60.07;102127.16;5017683;28;20041;-71
2022/01/19 06:49:36;;;;;;;25.95;13.57;;;;;;;0.04;59.78;102173.19;5014476;28;20045;-76
2022/01/19 06:52:02;;;;;;;31.00;12.18;;;;;;;0.09;59.53;102169.25;5027782;28;20470;-79
2022/01/19 06:54:28;;;;;;;28.67;17.20;;;;;;;-0.73;62.09;102161.59;5013094;28;20041;-70
2022/01/19 06:56:54;;;;;;;70.32;20.15;;;;;;;-0.01;58.40;102183.19;5020236;28;20441;-71
2022/01/19 06:59:19;;;;;;;25.38;12.75;;;;;;;0.10;57.69;102171.03;5012895;28;20046;-70
2022/01/19 07:01:45;;;;;;;36.17;15.55;;;;;;;0.02;58.09;102159.28;5016576;28;20393;-75
2022/01/19 07:04:14;;;;;;;35.88;16.85;;;;;;;-0.14;58.93;102149.56;5026267;28;20045;-71
2022/01/19 07:06:39;;;;;;;24.35;12.20;;;;;;;0.41;57.53;102166.34;5014154;28;20072;-70
2022/01/19 07:09:05;;;;;;;28.55;13.95;;;;;;;0.48;56.47;102152.16;5022085;28;20042;-70
2022/01/19 07:11:30;;;;;;;39.45;17.77;;;;;;;0.55;56.26;102156.06;5012663;28;20049;-72
2022/01/19 07:13:57;;;;;;;31.70;18.08;;;;;;;0.09;58.13;102138.28;5016183;28;20492;-72
2022/01/19 07:16:23;;;;;;;44.25;17.70;;;;;;;0.37;56.46;102154.00;5023342;28;20427;-71
2022/01/19 07:18:49;;;;;;;44.80;18.83;;;;;;;0.63;55.98;102157.47;5012204;28;20038;-70
2022/01/19 07:21:14;;;;;;;37.00;18.13;;;;;;;0.38;56.29;102142.00;5020528;28;20022;-72
2022/01/19 07:23:40;;;;;;;45.78;15.43;;;;;;;0.38;55.46;102142.91;5007977;28;20156;-71
2022/01/19 07:26:34;;;;;;;27.90;13.52;;;;;;;0.70;54.91;102153.63;5023690;28;20461;-71
2022/01/19 07:29:00;;;;;;;33.33;17.67;;;;;;;0.55;54.43;102164.72;5013550;28;20045;-73
2022/01/19 07:32:10;;;;;;;20.05;11.63;;;;;;;0.36;54.34;102162.53;5012704;28;20466;-70
2022/01/19 07:34:35;;;;;;;21.83;12.10;;;;;;;0.39;53.94;102152.41;5011096;28;20130;-70
2022/01/19 07:37:01;;;;;;;26.10;14.85;;;;;;;0.47;53.30;102132.31;5000389;28;20161;-69
2022/01/19 07:39:26;;;;;;;32.50;14.15;;;;;;;0.52;53.46;102133.50;4998481;28;20037;-72
2022/01/19 07:41:53;;;;;;;19.98;11.48;;;;;;;0.81;54.32;102153.56;5009898;28;20038;-70
2022/01/19 07:44:19;;;;;;;33.08;13.25;;;;;;;0.90;53.55;102149.81;5004150;28;20042;-70
2022/01/19 07:46:45;;;;;;;18.00;11.15;;;;;;;0.95;52.99;102138.97;5003962;28;20115;-71
2022/01/19 07:49:10;;;;;;;22.92;10.77;;;;;;;1.16;51.75;102161.88;5008084;28;20069;-75
2022/01/19 07:51:36;;;;;;;15.88;11.45;;;;;;;1.12;52.16;102152.13;5010302;28;20109;-70
2022/01/19 07:54:01;;;;;;;13.68;9.45;;;;;;;1.39;51.33;102163.41;5008070;28;20474;-69
2022/01/19 07:56:26;;;;;;;24.40;10.88;;;;;;;0.83;51.96;102145.94;5006973;28;20458;-70
2022/01/19 07:59:05;;;;;;;23.70;13.80;;;;;;;1.18;52.03;102166.38;5013093;28;20120;-69
2022/01/19 08:01:31;;;;;;;19.65;10.85;;;;;;;1.24;51.06;102169.38;5006560;28;20088;-69
2022/01/19 08:04:00;;;;;;;17.38;11.05;;;;;;;1.18;51.36;102153.44;5007914;28;20057;-70
2022/01/19 08:06:25;;;;;;;14.77;11.55;;;;;;;1.12;51.66;102165.94;5000097;28;20097;-69
2022/01/19 08:08:51;;;;;;;21.00;13.75;;;;;;;1.22;51.80;102162.31;5001720;28;20053;-71
2022/01/19 08:11:16;;;;;;;16.45;10.85;;;;;;;1.15;51.48;102149.78;5005046;28;20493;-69
2022/01/19 08:13:42;;;;;;;25.05;12.05;;;;;;;1.31;51.45;102154.25;5001622;28;20084;-69
2022/01/19 08:16:08;;;;;;;23.85;11.57;;;;;;;1.24;51.29;102164.19;5009404;28;20052;-71
2022/01/19 08:18:33;;;;;;;22.20;13.43;;;;;;;0.95;52.06;102170.00;4997261;28;20026;-70
2022/01/19 08:20:59;;;;;;;21.55;14.40;;;;;;;1.10;51.84;102171.81;5006891;28;20525;-70
2022/01/19 08:23:24;;;;;;;18.38;11.40;;;;;;;1.09;51.85;102178.69;5005560;28;20037;-69
2022/01/19 08:25:50;;;;;;;18.73;10.65;;;;;;;1.32;51.70;102158.63;4998329;28;20050;-70
2022/01/19 08:28:15;;;;;;;18.80;12.10;;;;;;;1.60;51.03;102175.16;4999176;28;20462;-70
2022/01/19 08:30:41;;;;;;;19.08;12.65;;;;;;;1.63;51.11;102159.81;5005848;28;20477;-70
2022/01/19 08:36:41;;;;;;;15.05;9.15;;;;;;;1.55;49.91;102162.72;5000677;28;20053;-70
2022/01/19 08:39:33;;;;;;;16.27;10.38;;;;;;;1.71;50.54;102177.50;5012337;28;20128;-70
2022/01/19 08:42:24;;;;;;;21.38;7.80;;;;;;;1.64;50.87;102182.31;5009855;28;20046;-71
2022/01/19 08:44:49;;;;;;;22.63;9.15;;;;;;;1.91;49.45;102156.41;4997826;28;20061;-71
2022/01/19 08:47:15;;;;;;;13.13;7.60;;;;;;;2.05;49.07;102183.16;5009240;28;20053;-71
2022/01/19 08:49:41;;;;;;;18.65;8.90;;;;;;;2.06;49.60;102161.63;5010100;28;20482;-72
2022/01/19 08:52:06;;;;;;;14.73;10.27;;;;;;;2.35;48.74;102181.59;5001501;28;20033;-71
2022/01/19 08:54:32;;;;;;;14.45;7.93;;;;;;;2.11;48.82;102188.75;5010170;28;20025;-70
2022/01/19 08:57:00;;;;;;;10.60;7.43;;;;;;;2.02;48.33;102186.44;5008234;28;20554;-71
2022/01/19 08:59:25;;;;;;;11.57;6.75;;;;;;;2.24;48.14;102185.22;4997759;28;20038;-71
2022/01/19 09:01:55;;;;;;;12.73;10.45;;;;;;;1.75;49.64;102189.88;5006473;28;20405;-71
2022/01/19 09:04:20;;;;;;;23.83;8.07;;;;;;;2.00;49.33;102171.63;5003573;28;20042;-71
2022/01/19 09:06:46;;;;;;;17.08;7.70;;;;;;;1.91;49.37;102156.41;5009593;28;20030;-71
2022/01/19 09:09:18;;;;;;;13.07;6.45;;;;;;;1.96;49.57;102161.88;5009717;28;20050;-70
2022/01/19 09:11:44;;;;;;;18.23;7.57;;;;;;;2.07;49.00;102151.38;5009980;28;20045;-71
2022/01/19 09:14:10;;;;;;;16.02;6.45;;;;;;;2.39;48.14;102157.69;5000592;28;20382;-71
2022/01/19 09:16:36;;;;;;;28.05;9.88;;;;;;;2.26;48.45;102173.25;5009267;28;20037;-71
2022/01/19 09:19:04;;;;;;;21.42;6.57;;;;;;;2.54;47.97;102158.59;4999397;28;20129;-71
2022/01/19 09:21:30;;;;;;;19.35;8.48;;;;;;;2.77;47.87;102171.16;5004572;28;20032;-70
2022/01/19 09:24:17;;;;;;;20.75;8.43;;;;;;;2.77;47.67;102165.97;5009611;28;20049;-70
2022/01/19 09:26:43;;;;;;;15.85;8.90;;;;;;;2.83;47.66;102150.78;4998924;28;20038;-71
2022/01/19 09:29:09;;;;;;;11.60;8.05;;;;;;;3.01;47.46;102154.47;4998722;28;20089;-70
2022/01/19 09:31:35;;;;;;;18.58;10.25;;;;;;;3.12;47.41;102171.53;5009195;28;20085;-71
2022/01/19 09:34:14;;;;;;;13.95;8.35;;;;;;;2.76;47.84;102146.91;5008522;28;20377;-71
2022/01/19 09:36:48;;;;;;;11.20;6.50;;;;;;;2.54;47.95;102135.28;4999074;28;20033;-70
2022/01/19 09:39:15;;;;;;;10.05;7.05;;;;;;;2.60;47.66;102131.25;5004321;28;20093;-78
2022/01/19 09:41:41;;;;;;;13.40;7.05;;;;;;;3.09;46.87;102132.47;5011121;28;20542;-71
2022/01/19 09:44:08;;;;;;;27.23;8.15;;;;;;;3.34;45.99;102137.34;5015281;28;20047;-71
2022/01/19 09:46:34;;;;;;;16.05;6.78;;;;;;;3.33;46.40;102107.03;5000259;28;20042;-71
2022/01/19 09:49:00;;;;;;;12.60;9.05;;;;;;;3.58;45.51;102095.44;5001227;28;20025;-70
2022/01/19 09:51:28;;;;;;;20.13;9.23;;;;;;;3.58;44.79;102121.38;5008599;28;20032;-71
2022/01/19 09:53:54;;;;;;;34.85;8.38;;;;;;;3.42;44.72;102101.50;5007616;28;20041;-71
2022/01/19 09:56:20;;;;;;;21.95;8.20;;;;;;;3.45;44.77;102104.25;5007840;28;20038;-71
2022/01/19 09:58:52;;;;;;;12.82;6.57;;;;;;;3.56;44.19;102094.47;5008307;28;20030;-70
2022/01/19 10:01:47;;;;;;;10.13;6.13;;;;;;;3.38;43.69;102105.59;5006985;28;20037;-71
2022/01/19 10:04:18;;;;;;;18.25;5.00;;;;;;;3.39;43.29;102090.91;4997268;28;20042;-69
2022/01/19 10:06:43;;;;;;;10.27;5.15;;;;;;;3.72;43.46;102078.94;5001868;28;20462;-69
2022/01/19 10:09:09;;;;;;;15.25;6.30;;;;;;;3.75;43.70;102065.22;5004206;28;20125;-71
2022/01/19 10:17:02;;;;;;;16.70;6.28;;;;;;;4.09;42.76;102069.63;4995953;28;20058;-70
2022/01/19 10:19:38;;;;;;;10.88;5.80;;;;;;;3.96;43.01;102068.97;5001024;28;20048;-71
2022/01/19 10:22:25;;;;;;;18.13;7.50;;;;;;;4.00;42.55;102037.19;5003365;28;20072;-70
2022/01/19 10:24:56;;;;;;;12.00;6.10;;;;;;;4.00;42.26;102044.06;4995815;28;20385;-71
2022/01/19 10:27:33;;;;;;;26.77;9.35;;;;;;;4.15;42.37;102060.47;5009459;28;20045;-72
2022/01/19 10:30:04;;;;;;;10.30;5.68;;;;;;;3.70;43.02;102048.50;5000579;28;20137;-71
2022/01/19 10:32:47;;;;;;;10.07;6.65;;;;;;;4.03;43.97;102046.84;5014952;28;20058;-71
2022/01/19 10:35:21;;;;;;;8.07;5.47;;;;;;;4.23;41.62;102043.56;5008623;28;20133;-70
2022/01/19 10:38:08;;;;;;;10.80;5.78;;;;;;;4.23;41.70;102022.75;5007208;28;20057;-70
2022/01/19 10:40:35;;;;;;;10.02;6.45;;;;;;;4.32;41.74;102016.28;5009693;28;20660;-71
2022/01/19 10:43:34;;;;;;;10.77;5.07;;;;;;;4.51;41.60;102037.19;4992925;28;20494;-69
2022/01/19 10:46:24;;;;;;;9.20;5.72;;;;;;;5.03;40.78;102031.06;4992241;28;20030;-71
2022/01/19 10:49:04;;;;;;;8.05;5.28;;;;;;;4.95;40.11;102022.03;4983311;28;20050;-72
2022/01/19 10:51:37;;;;;;;13.70;6.82;;;;;;;5.39;39.76;102016.34;4997734;28;20041;-71
2022/01/19 10:54:17;;;;;;;;;;;;;;;5.60;38.38;101998.22;5006996;28;20385;-71
2022/01/19 10:56:48;;;;;;;6.68;4.47;;;;;;;5.98;38.05;102006.00;5007929;28;19921;-75
2022/01/19 10:59:18;;;;;;;7.88;5.40;;;;;;;6.24;37.94;101986.31;4989394;28;20078;-70
2022/01/19 11:01:51;;;;;;;12.07;4.97;;;;;;;6.31;37.54;101993.56;4991772;28;20101;-71
2022/01/19 11:04:24;;;;;;;9.73;4.45;;;;;;;6.30;38.20;101997.00;5017441;28;20044;-73
2022/01/19 11:07:11;;;;;;;8.77;5.25;;;;;;;6.27;38.70;102002.06;5005086;28;20022;-71
2022/01/19 11:10:30;;;;;;;10.40;5.65;;;;;;;6.05;38.42;101995.03;5009608;28;20022;-69
2022/01/19 11:12:40;;;;;;;10.57;5.57;;;;;;;6.04;37.91;101988.03;5006269;28;20103;-71
2022/01/19 11:15:22;;;;;;;12.15;5.85;;;;;;;5.81;38.22;101981.78;5002672;28;20042;-72
2022/01/19 11:17:49;;;;;;;11.82;5.68;;;;;;;6.11;37.86;101948.38;4998812;28;20085;-70
2022/01/19 11:20:20;;;;;;;11.30;6.35;;;;;;;6.24;37.57;101965.44;4994337;28;20049;-71
2022/01/19 11:26:09;;;;;;;11.10;5.28;;;;;;;6.22;38.61;101941.03;5005286;28;20048;-71
2022/01/19 11:28:38;;;;;;;9.95;6.80;;;;;;;5.23;38.69;101954.88;4996012;28;20046;-71
2022/01/19 11:31:10;;;;;;;9.63;5.57;;;;;;;5.11;39.29;101950.81;5008176;28;20068;-72
2022/01/19 11:33:58;;;;;;;10.57;5.70;;;;;;;5.44;39.84;101941.94;5003858;28;20025;-71
2022/01/19 11:36:57;;;;;;;10.15;6.10;;;;;;;6.01;39.69;101939.28;5008736;28;20056;-71
2022/01/19 11:39:23;;;;;;;10.50;5.65;;;;;;;6.02;38.79;101935.88;4998371;28;20042;-71
2022/01/19 11:41:54;;;;;;;8.60;6.13;;;;;;;5.62;38.80;101931.47;5010276;28;20083;-72
2022/01/19 11:44:36;;;;;;;8.70;5.50;;;;;;;5.66;39.95;101928.16;4993079;28;20050;-70
2022/01/19 11:47:23;;;;;;;8.45;5.95;;;;;;;5.64;39.93;101924.63;4996504;28;20398;-70
2022/01/19 11:50:07;;;;;;;28.50;5.93;;;;;;;5.67;39.29;101923.88;4990767;28;20042;-70
2022/01/19 11:52:42;;;;;;;10.55;5.45;;;;;;;5.22;39.34;101918.34;4997704;28;20057;-70
2022/01/19 11:56:11;;;;;;;13.52;5.72;;;;;;;5.66;39.09;101919.47;5026889;28;20620;-71
2022/01/19 11:58:37;;;;;;;12.32;5.50;;;;;;;5.53;38.92;101917.16;4993518;28;20084;-70
2022/01/19 12:01:19;;;;;;;7.40;5.40;;;;;;;5.49;39.29;101885.78;4986250;28;20403;-71
2022/01/19 12:03:44;;;;;;;10.95;5.55;;;;;;;5.00;39.23;101913.88;4984091;28;20045;-72
2022/01/19 12:06:29;;;;;;;12.57;5.15;;;;;;;4.62;40.78;101907.75;4973259;28;20431;-71
2022/01/19 12:08:55;;;;;;;11.85;6.32;;;;;;;4.92;40.43;101879.72;4981751;28;20391;-71
2022/01/19 12:11:22;;;;;;;10.48;6.10;;;;;;;5.25;39.59;101882.97;4985750;28;20061;-74
2022/01/19 12:14:18;;;;;;;15.38;5.70;;;;;;;5.21;39.74;101873.22;4986576;28;20042;-71
2022/01/19 12:16:58;;;;;;;11.50;4.97;;;;;;;5.31;39.38;101876.25;4985643;28;20427;-71
2022/01/19 12:19:29;;;;;;;11.15;6.45;;;;;;;5.34;39.86;101871.19;4981923;28;20168;-70
2022/01/19 12:22:06;;;;;;;10.23;5.50;;;;;;;5.37;39.88;101860.91;4983477;28;20089;-72
2022/01/19 12:24:41;;;;;;;12.10;6.57;;;;;;;5.02;40.86;101876.72;4974647;28;20019;-71
2022/01/19 12:27:12;;;;;;;11.80;6.38;;;;;;;4.59;41.87;101889.41;4973016;28;20046;-71
2022/01/19 12:29:41;;;;;;;10.27;6.15;;;;;;;4.82;41.61;101887.88;4985966;28;20041;-71
2022/01/19 12:32:16;;;;;;;9.23;4.82;;;;;;;4.43;41.65;101888.66;4984457;28;20372;-72
2022/01/19 12:35:07;;;;;;;11.88;6.57;;;;;;;4.89;41.91;101876.94;4978944;28;20031;-71
2022/01/19 12:37:32;;;;;;;10.00;6.25;;;;;;;4.78;41.84;101886.88;4977852;28;20379;-71
2022/01/19 12:40:36;;;;;;;10.15;5.78;;;;;;;4.44;42.82;101873.94;4978302;28;20027;-72
2022/01/19 12:43:11;;;;;;;10.35;6.20;;;;;;;4.71;42.61;101873.50;4979442;28;20533;-73
2022/01/19 12:45:47;;;;;;;15.80;5.95;;;;;;;4.81;42.55;101861.00;4986832;28;20130;-71
2022/01/19 12:48:14;;;;;;;12.73;6.82;;;;;;;4.88;42.25;101876.91;4980748;28;20441;-72
2022/01/19 12:50:46;;;;;;;11.85;6.68;;;;;;;4.40;42.38;101875.53;4980967;28;20050;-72
2022/01/19 12:53:21;;;;;;;12.52;7.80;;;;;;;4.65;42.15;101843.78;4972339;28;20121;-71
2022/01/19 12:55:55;;;;;;;11.32;5.15;;;;;;;5.02;41.93;101842.00;4975766;28;20703;-72
2022/01/19 12:58:27;;;;;;;9.07;7.00;;;;;;;4.76;41.79;101852.09;4980284;28;20038;-71
2022/01/19 13:00:57;;;;;;;14.77;6.78;;;;;;;4.77;42.38;101856.47;4995786;28;20045;-70
2022/01/19 13:03:47;;;;;;;9.00;5.70;;;;;;;4.81;41.69;101860.13;4978286;28;20145;-69
2022/01/19 13:06:15;;;;;;;12.25;6.30;;;;;;;4.57;42.17;101839.94;4973302;28;20027;-69
2022/01/19 13:08:43;;;;;;;24.85;5.72;;;;;;;4.74;42.14;101856.31;4962009;28;20050;-70
2022/01/19 13:11:20;;;;;;;12.00;5.45;;;;;;;4.71;41.96;101850.09;4960161;28;20053;-70
2022/01/19 13:14:07;;;;;;;13.73;6.68;;;;;;;5.03;42.58;101817.75;4972687;28;20038;-70
2022/01/19 13:16:39;;;;;;;11.50;6.60;;;;;;;4.86;41.59;101836.09;4968029;28;20123;-70
2022/01/19 13:19:10;;;;;;;12.95;6.47;;;;;;;5.11;41.88;101834.63;4971220;28;20019;-70
2022/01/19 13:21:37;;;;;;;12.45;6.43;;;;;;;5.13;42.37;101819.97;4970653;28;20041;-71
2022/01/19 13:24:08;;;;;;;8.48;5.78;;;;;;;5.11;41.90;101828.53;4966973;28;20054;-71